sensor_id;sensor_type;location;lat;lon;timestamp;P1;durP1;ratioP1;P2;durP2;ratioP2
22861;SDS011;11598;50.652;6.172;2024-02-15T00:06:52;12.38;;;4.88;;
22861;SDS011;11598;50.652;6.172;2024-02-15T00:16:52;11.50;;;4.10;;
22861;SDS011;11598;50.652;6.172;2024-02-15T00:26:53;19.38;;;5.35;;
22861;SDS011;11598;50.652;6.172;2024-02-15T00:36:54;23.60;;;6.25;;
22861;SDS011;11598;50.652;6.172;2024-02-15T00:46:54;25.10;;;5.85;;
22861;SDS011;11598;50.652;6.172;2024-02-15T00:56:56;15.02;;;4.43;;
22861;SDS011;11598;50.652;6.172;2024-02-15T01:06:56;11.27;;;3.75;;
22861;SDS011;11598;50.652;6.172;2024-02-15T01:16:56;15.75;;;4.07;;
22861;SDS011;11598;50.652;6.172;2024-02-15T01:26:57;13.77;;;3.47;;
22861;SDS011;11598;50.652;6.172;2024-02-15T01:36:57;18.40;;;3.47;;
22861;SDS011;11598;50.652;6.172;2024-02-15T01:46:58;17.10;;;3.38;;
22861;SDS011;11598;50.652;6.172;2024-02-15T01:57:00;10.57;;;3.03;;
22861;SDS011;11598;50.652;6.172;2024-02-15T02:07:02;13.85;;;2.53;;
22861;SDS011;11598;50.652;6.172;2024-02-15T02:17:12;10.07;;;2.13;;
22861;SDS011;11598;50.652;6.172;2024-02-15T02:27:13;12.07;;;2.65;;
22861;SDS011;11598;50.652;6.172;2024-02-15T02:37:15;15.77;;;2.70;;
22861;SDS011;11598;50.652;6.172;2024-02-15T02:47:16;6.18;;;2.15;;
22861;SDS011;11598;50.652;6.172;2024-02-15T02:57:16;14.93;;;2.40;;
22861;SDS011;11598;50.652;6.172;2024-02-15T03:07:17;11.60;;;2.35;;
22861;SDS011;11598;50.652;6.172;2024-02-15T03:17:18;13.63;;;2.50;;
22861;SDS011;11598;50.652;6.172;2024-02-15T03:27:19;9.90;;;2.00;;
22861;SDS011;11598;50.652;6.172;2024-02-15T03:37:22;8.20;;;1.92;;
22861;SDS011;11598;50.652;6.172;2024-02-15T03:47:23;7.35;;;1.63;;
22861;SDS011;11598;50.652;6.172;2024-02-15T03:57:24;7.28;;;1.60;;
22861;SDS011;11598;50.652;6.172;2024-02-15T04:07:25;8.68;;;1.77;;
22861;SDS011;11598;50.652;6.172;2024-02-15T04:17:26;12.25;;;2.13;;
22861;SDS011;11598;50.652;6.172;2024-02-15T04:27:27;12.68;;;1.80;;
22861;SDS011;11598;50.652;6.172;2024-02-15T04:37:27;7.90;;;1.42;;
22861;SDS011;11598;50.652;6.172;2024-02-15T04:47:31;11.38;;;1.98;;
22861;SDS011;11598;50.652;6.172;2024-02-15T04:57:32;9.23;;;1.92;;
22861;SDS011;11598;50.652;6.172;2024-02-15T05:07:34;8.48;;;1.77;;
22861;SDS011;11598;50.652;6.172;2024-02-15T05:17:38;9.90;;;1.83;;
22861;SDS011;11598;50.652;6.172;2024-02-15T05:27:40;8.03;;;2.00;;
22861;SDS011;11598;50.652;6.172;2024-02-15T05:37:42;9.18;;;1.95;;
22861;SDS011;11598;50.652;6.172;2024-02-15T05:47:43;5.65;;;2.00;;
22861;SDS011;11598;50.652;6.172;2024-02-15T05:57:43;11.18;;;1.95;;
22861;SDS011;11598;50.652;6.172;2024-02-15T06:07:44;7.63;;;2.58;;
22861;SDS011;11598;50.652;6.172;2024-02-15T06:17:46;6.63;;;1.65;;
22861;SDS011;11598;50.652;6.172;2024-02-15T06:27:47;8.38;;;1.83;;
22861;SDS011;11598;50.652;6.172;2024-02-15T06:37:48;7.20;;;1.70;;
22861;SDS011;11598;50.652;6.172;2024-02-15T06:48:07;7.55;;;1.60;;
22861;SDS011;11598;50.652;6.172;2024-02-15T06:58:07;6.18;;;1.27;;
22861;SDS011;11598;50.652;6.172;2024-02-15T07:08:08;5.57;;;1.63;;
22861;SDS011;11598;50.652;6.172;2024-02-15T07:18:10;9.47;;;1.43;;
22861;SDS011;11598;50.652;6.172;2024-02-15T07:28:12;10.43;;;2.35;;
22861;SDS011;11598;50.652;6.172;2024-02-15T07:38:13;6.05;;;1.50;;
22861;SDS011;11598;50.652;6.172;2024-02-15T07:48:13;6.80;;;1.50;;
22861;SDS011;11598;50.652;6.172;2024-02-15T07:58:13;7.90;;;1.40;;
22861;SDS011;11598;50.652;6.172;2024-02-15T08:08:14;8.68;;;1.38;;
22861;SDS011;11598;50.652;6.172;2024-02-15T08:18:14;6.90;;;1.30;;
22861;SDS011;11598;50.652;6.172;2024-02-15T08:28:15;7.03;;;1.83;;
22861;SDS011;11598;50.652;6.172;2024-02-15T08:38:15;7.32;;;1.48;;
22861;SDS011;11598;50.652;6.172;2024-02-15T08:48:17;4.63;;;1.13;;
22861;SDS011;11598;50.652;6.172;2024-02-15T08:58:17;4.75;;;1.13;;
22861;SDS011;11598;50.652;6.172;2024-02-15T09:08:18;6.55;;;1.00;;
22861;SDS011;11598;50.652;6.172;2024-02-15T09:18:21;5.03;;;1.00;;
22861;SDS011;11598;50.652;6.172;2024-02-15T09:28:22;4.80;;;1.20;;
22861;SDS011;11598;50.652;6.172;2024-02-15T09:38:23;9.30;;;1.10;;
22861;SDS011;11598;50.652;6.172;2024-02-15T09:48:25;5.07;;;1.80;;
22861;SDS011;11598;50.652;6.172;2024-02-15T09:58:27;6.78;;;1.30;;
22861;SDS011;11598;50.652;6.172;2024-02-15T10:08:29;3.75;;;0.90;;
22861;SDS011;11598;50.652;6.172;2024-02-15T10:18:29;4.03;;;0.98;;
22861;SDS011;11598;50.652;6.172;2024-02-15T10:28:30;5.32;;;1.35;;
22861;SDS011;11598;50.652;6.172;2024-02-15T10:38:31;3.75;;;0.80;;
22861;SDS011;11598;50.652;6.172;2024-02-15T10:48:31;6.77;;;1.03;;
22861;SDS011;11598;50.652;6.172;2024-02-15T10:58:32;5.13;;;0.73;;
22861;SDS011;11598;50.652;6.172;2024-02-15T11:08:38;4.82;;;1.15;;
22861;SDS011;11598;50.652;6.172;2024-02-15T11:18:48;4.88;;;1.15;;
22861;SDS011;11598;50.652;6.172;2024-02-15T11:28:51;4.32;;;0.90;;
22861;SDS011;11598;50.652;6.172;2024-02-15T11:38:51;8.63;;;1.25;;
22861;SDS011;11598;50.652;6.172;2024-02-15T11:48:52;5.05;;;1.08;;
22861;SDS011;11598;50.652;6.172;2024-02-15T11:59:06;2.35;;;0.70;;
22861;SDS011;11598;50.652;6.172;2024-02-15T12:09:06;3.88;;;0.98;;
22861;SDS011;11598;50.652;6.172;2024-02-15T12:19:28;4.47;;;0.82;;
22861;SDS011;11598;50.652;6.172;2024-02-15T12:29:28;3.50;;;0.80;;
22861;SDS011;11598;50.652;6.172;2024-02-15T12:39:29;3.60;;;0.77;;
22861;SDS011;11598;50.652;6.172;2024-02-15T12:49:31;2.72;;;0.70;;
22861;SDS011;11598;50.652;6.172;2024-02-15T12:59:32;3.33;;;0.80;;
22861;SDS011;11598;50.652;6.172;2024-02-15T13:09:32;4.00;;;1.17;;
22861;SDS011;11598;50.652;6.172;2024-02-15T13:19:33;2.22;;;0.60;;
22861;SDS011;11598;50.652;6.172;2024-02-15T13:29:36;3.73;;;0.80;;
22861;SDS011;11598;50.652;6.172;2024-02-15T13:39:36;3.70;;;0.77;;
22861;SDS011;11598;50.652;6.172;2024-02-15T13:49:38;4.57;;;0.65;;
22861;SDS011;11598;50.652;6.172;2024-02-15T13:59:39;3.33;;;0.88;;
22861;SDS011;11598;50.652;6.172;2024-02-15T14:09:39;2.47;;;0.50;;
22861;SDS011;11598;50.652;6.172;2024-02-15T14:19:39;5.72;;;0.82;;
22861;SDS011;11598;50.652;6.172;2024-02-15T14:29:40;5.28;;;0.75;;
22861;SDS011;11598;50.652;6.172;2024-02-15T14:39:44;3.80;;;0.90;;
22861;SDS011;11598;50.652;6.172;2024-02-15T14:49:45;5.53;;;0.88;;
22861;SDS011;11598;50.652;6.172;2024-02-15T14:59:45;7.15;;;0.90;;
22861;SDS011;11598;50.652;6.172;2024-02-15T15:09:45;3.33;;;0.90;;
22861;SDS011;11598;50.652;6.172;2024-02-15T15:20:04;5.28;;;1.17;;
22861;SDS011;11598;50.652;6.172;2024-02-15T15:30:08;2.75;;;1.00;;
22861;SDS011;11598;50.652;6.172;2024-02-15T15:40:10;3.53;;;1.10;;
22861;SDS011;11598;50.652;6.172;2024-02-15T15:50:12;3.70;;;1.30;;
22861;SDS011;11598;50.652;6.172;2024-02-15T16:00:12;4.72;;;1.00;;
22861;SDS011;11598;50.652;6.172;2024-02-15T16:10:13;2.67;;;0.97;;
22861;SDS011;11598;50.652;6.172;2024-02-15T16:20:18;4.35;;;0.93;;
22861;SDS011;11598;50.652;6.172;2024-02-15T16:30:18;7.00;;;1.00;;
22861;SDS011;11598;50.652;6.172;2024-02-15T16:40:19;3.65;;;0.77;;
22861;SDS011;11598;50.652;6.172;2024-02-15T17:00:22;5.70;;;0.90;;
22861;SDS011;11598;50.652;6.172;2024-02-15T17:10:24;4.28;;;0.98;;
22861;SDS011;11598;50.652;6.172;2024-02-15T17:20:24;2.35;;;0.57;;
22861;SDS011;11598;50.652;6.172;2024-02-15T17:30:25;2.95;;;0.80;;
22861;SDS011;11598;50.652;6.172;2024-02-15T17:40:25;3.80;;;0.98;;
22861;SDS011;11598;50.652;6.172;2024-02-15T17:50:26;3.42;;;0.73;;
22861;SDS011;11598;50.652;6.172;2024-02-15T18:00:27;3.63;;;0.90;;
22861;SDS011;11598;50.652;6.172;2024-02-15T18:10:29;2.42;;;0.75;;
22861;SDS011;11598;50.652;6.172;2024-02-15T18:20:29;2.83;;;0.88;;
22861;SDS011;11598;50.652;6.172;2024-02-15T18:30:29;3.55;;;0.80;;
22861;SDS011;11598;50.652;6.172;2024-02-15T18:40:42;2.03;;;0.85;;
22861;SDS011;11598;50.652;6.172;2024-02-15T18:50:43;4.78;;;0.75;;
22861;SDS011;11598;50.652;6.172;2024-02-15T19:00:44;2.97;;;1.00;;
22861;SDS011;11598;50.652;6.172;2024-02-15T19:10:47;2.67;;;1.03;;
22861;SDS011;11598;50.652;6.172;2024-02-15T19:20:48;4.45;;;1.10;;
22861;SDS011;11598;50.652;6.172;2024-02-15T19:30:48;3.80;;;0.73;;
22861;SDS011;11598;50.652;6.172;2024-02-15T19:40:49;3.75;;;1.00;;
22861;SDS011;11598;50.652;6.172;2024-02-15T19:50:49;3.17;;;0.63;;
22861;SDS011;11598;50.652;6.172;2024-02-15T20:00:49;4.22;;;1.10;;
22861;SDS011;11598;50.652;6.172;2024-02-15T20:10:51;5.40;;;1.23;;
22861;SDS011;11598;50.652;6.172;2024-02-15T20:20:55;4.00;;;1.20;;
22861;SDS011;11598;50.652;6.172;2024-02-15T20:30:56;5.20;;;1.20;;
22861;SDS011;11598;50.652;6.172;2024-02-15T20:40:58;3.58;;;1.05;;
22861;SDS011;11598;50.652;6.172;2024-02-15T20:51:01;4.60;;;1.10;;
22861;SDS011;11598;50.652;6.172;2024-02-15T21:01:01;5.05;;;1.60;;
22861;SDS011;11598;50.652;6.172;2024-02-15T21:11:02;5.40;;;1.48;;
22861;SDS011;11598;50.652;6.172;2024-02-15T21:21:02;7.00;;;1.27;;
22861;SDS011;11598;50.652;6.172;2024-02-15T21:31:05;5.60;;;1.50;;
22861;SDS011;11598;50.652;6.172;2024-02-15T21:41:14;4.38;;;1.35;;
22861;SDS011;11598;50.652;6.172;2024-02-15T21:51:14;4.95;;;1.60;;
22861;SDS011;11598;50.652;6.172;2024-02-15T22:01:15;3.95;;;1.40;;
22861;SDS011;11598;50.652;6.172;2024-02-15T22:11:15;6.22;;;1.60;;
22861;SDS011;11598;50.652;6.172;2024-02-15T22:21:16;5.10;;;1.58;;
22861;SDS011;11598;50.652;6.172;2024-02-15T22:31:19;7.47;;;1.52;;
22861;SDS011;11598;50.652;6.172;2024-02-15T22:41:21;3.40;;;1.70;;
22861;SDS011;11598;50.652;6.172;2024-02-15T22:51:22;5.93;;;1.63;;
22861;SDS011;11598;50.652;6.172;2024-02-15T23:01:23;6.13;;;1.70;;
22861;SDS011;11598;50.652;6.172;2024-02-15T23:11:26;4.50;;;1.50;;
22861;SDS011;11598;50.652;6.172;2024-02-15T23:21:26;4.47;;;1.52;;
22861;SDS011;11598;50.652;6.172;2024-02-15T23:31:26;10.25;;;1.38;;
22861;SDS011;11598;50.652;6.172;2024-02-15T23:41:27;6.35;;;1.50;;
22861;SDS011;11598;50.652;6.172;2024-02-15T23:51:27;4.20;;;1.45;;
